^ Back to Top

Niederschlagsradar DWD

© Deutscher Wetterdienst, Offenbach (DWD)

Aviation WX

[source: ADDS]
METAR
EDDN 242220Z 08001KT CAVOK 10/09 Q1023 =
TAF
TAF EDDN 241700Z 2418/2518 VRB02KT CAVOK BECMG 2420/2422 11005KT =
SR / SS: 05:07 / 17:06 UTC (ETHR 2016-09-25)

Statistiken

Besucher
40
Beiträge
36
Weblinks
10
Anzahl Beitragshäufigkeit
57027